createdAt,value
2022-12-15T00:02:36.202Z,98533.94
2022-12-15T00:06:58.664Z,98548.69
2022-12-15T00:11:21.140Z,98551.25
2022-12-15T00:15:41.432Z,98568.47
2022-12-15T00:20:01.704Z,98565.81
2022-12-15T00:24:24.275Z,98553.69
2022-12-15T00:28:44.446Z,98569.31
2022-12-15T00:33:04.800Z,98567.63
2022-12-15T00:37:25.127Z,98578.00
2022-12-15T00:41:29.625Z,98580.63
2022-12-15T00:45:46.833Z,98590.97
2022-12-15T00:50:07.667Z,98618.69
2022-12-15T00:54:28.460Z,98624.00
2022-12-15T00:58:50.675Z,98637.16
2022-12-15T01:03:11.150Z,98650.22
2022-12-15T01:07:32.800Z,98651.22
2022-12-15T01:11:53.155Z,98648.75
2022-12-15T01:16:15.052Z,98638.41
2022-12-15T01:20:19.147Z,98641.94
2022-12-15T01:24:22.302Z,98627.28
2022-12-15T01:28:25.990Z,98624.69
2022-12-15T01:32:30.489Z,98634.19
2022-12-15T01:36:33.511Z,98639.38
2022-12-15T01:40:46.385Z,98651.41
2022-12-15T01:44:52.873Z,98639.28
2022-12-15T01:49:01.581Z,98655.72
2022-12-15T01:53:05.010Z,98649.72
2022-12-15T01:57:11.922Z,98660.97
2022-12-15T02:01:15.016Z,98687.78
2022-12-15T02:05:21.012Z,98689.56
2022-12-15T02:09:26.825Z,98687.81
2022-12-15T02:13:36.392Z,98700.00
2022-12-15T02:17:49.951Z,98680.06
2022-12-15T02:22:10.508Z,98667.75
2022-12-15T02:26:49.833Z,98671.06
2022-12-15T02:31:15.932Z,98677.84
2022-12-15T02:35:26.386Z,98678.63
2022-12-15T02:39:30.323Z,98675.13
2022-12-15T02:43:38.904Z,98687.19
2022-12-15T02:47:52.234Z,98690.53
2022-12-15T02:52:08.714Z,98697.50
2022-12-15T02:56:18.484Z,98696.66
2022-12-15T03:00:22.477Z,98707.97
2022-12-15T03:04:27.909Z,98715.00
2022-12-15T03:08:30.960Z,98716.81
2022-12-15T03:12:34.182Z,98743.63
2022-12-15T03:16:37.323Z,98743.56
2022-12-15T03:20:41.941Z,98740.97
2022-12-15T03:24:45.042Z,98729.78
2022-12-15T03:28:48.083Z,98740.94
2022-12-15T03:32:51.222Z,98755.69
2022-12-15T03:36:55.907Z,98763.34
2022-12-15T03:40:58.962Z,98771.16
2022-12-15T03:45:01.981Z,98757.34
2022-12-15T03:49:05.327Z,98760.84
2022-12-15T03:53:09.717Z,98767.81
2022-12-15T03:57:13.300Z,98773.09
2022-12-15T04:01:27.239Z,98793.00
2022-12-15T04:05:33.096Z,98801.69
2022-12-15T04:09:37.933Z,98811.31
2022-12-15T04:13:41.121Z,98814.78
2022-12-15T04:17:44.454Z,98813.91
2022-12-15T04:21:47.481Z,98834.69
2022-12-15T04:26:09.368Z,98828.63
2022-12-15T04:30:32.251Z,98825.25
2022-12-15T04:34:54.182Z,98828.78
2022-12-15T04:39:15.801Z,98831.41
2022-12-15T04:43:37.783Z,98827.88
2022-12-15T04:47:58.352Z,98811.28
2022-12-15T04:52:18.646Z,98818.88
2022-12-15T04:56:39.228Z,98831.03
2022-12-15T05:01:01.216Z,98844.94
2022-12-15T05:05:22.226Z,98847.66
2022-12-15T05:09:42.530Z,98853.81
2022-12-15T05:14:02.865Z,98855.72
2022-12-15T05:18:24.849Z,98869.66
2022-12-15T05:23:12.957Z,98883.63
2022-12-15T05:27:33.487Z,98874.09
2022-12-15T05:31:52.008Z,98882.75
2022-12-15T05:35:59.062Z,98892.31
2022-12-15T05:40:02.006Z,98895.75
2022-12-15T05:44:05.101Z,98894.00
2022-12-15T05:48:08.460Z,98901.84
2022-12-15T05:52:12.988Z,98899.31
2022-12-15T05:56:16.715Z,98901.13
2022-12-15T06:00:20.138Z,98914.88
2022-12-15T06:04:23.104Z,98926.97
2022-12-15T06:08:27.531Z,98927.78
2022-12-15T06:12:30.464Z,98925.19
2022-12-15T06:16:33.863Z,98938.25
2022-12-15T06:20:36.810Z,98923.53
2022-12-15T06:24:41.125Z,98939.97
2022-12-15T06:28:44.161Z,98938.19
2022-12-15T06:32:47.125Z,98931.09
2022-12-15T06:36:52.999Z,98938.72
2022-12-15T06:40:58.152Z,98936.81
2022-12-15T06:45:01.082Z,98948.91
2022-12-15T06:49:04.119Z,98970.47
2022-12-15T06:53:07.041Z,98993.88
2022-12-15T06:57:11.355Z,99011.03
2022-12-15T07:01:15.542Z,99012.63
2022-12-15T07:05:18.717Z,99015.22
2022-12-15T07:09:21.655Z,99016.06
2022-12-15T07:13:26.399Z,99004.72
2022-12-15T07:17:29.988Z,98997.72
2022-12-15T07:21:33.450Z,99006.28
2022-12-15T07:25:37.191Z,99014.97
2022-12-15T07:29:42.199Z,99008.03
2022-12-15T07:33:45.530Z,99017.50
2022-12-15T07:37:48.753Z,99031.28
2022-12-15T07:41:51.753Z,99029.63
2022-12-15T07:45:56.130Z,99040.16
2022-12-15T07:49:59.221Z,99046.50
2022-12-15T07:54:02.187Z,99061.31
2022-12-15T07:58:05.104Z,99069.31
2022-12-15T08:02:10.735Z,99082.50
2022-12-15T08:06:15.463Z,99086.88
2022-12-15T08:10:18.582Z,99094.78
2022-12-15T08:14:22.257Z,99098.28
2022-12-15T08:18:26.994Z,99113.19
2022-12-15T08:22:29.896Z,99112.34
2022-12-15T08:26:32.840Z,99118.50
2022-12-15T08:30:36.645Z,99109.06
2022-12-15T08:34:42.306Z,99119.53
2022-12-15T08:38:46.582Z,99117.00
2022-12-15T08:42:49.517Z,99122.25
2022-12-15T08:46:52.458Z,99130.16
2022-12-15T08:50:58.038Z,99134.63
2022-12-15T08:55:00.985Z,99135.56
2022-12-15T08:59:03.930Z,99133.22
2022-12-15T09:03:06.848Z,99144.41
2022-12-15T09:07:11.141Z,99146.13
2022-12-15T09:11:14.155Z,99152.28
2022-12-15T09:15:17.525Z,99149.75
2022-12-15T09:19:20.475Z,99160.31
2022-12-15T09:23:25.018Z,99145.72
2022-12-15T09:27:29.217Z,99148.38
2022-12-15T09:31:34.061Z,99149.03
2022-12-15T09:35:37.065Z,99140.34
2022-12-15T09:39:41.391Z,99151.66
2022-12-15T09:43:56.615Z,99150.00
2022-12-15T09:48:05.361Z,99149.31
2022-12-15T09:52:13.644Z,99163.13
2022-12-15T09:56:23.931Z,99162.47
2022-12-15T10:00:32.074Z,99160.00
2022-12-15T10:04:46.705Z,99153.16
2022-12-15T10:08:56.965Z,99149.63
2022-12-15T10:13:05.836Z,99153.34
2022-12-15T10:17:19.896Z,99161.28
2022-12-15T10:21:26.263Z,99157.88
2022-12-15T10:25:31.271Z,99164.09
2022-12-15T10:29:44.199Z,99148.69
2022-12-15T10:33:59.133Z,99135.63
2022-12-15T10:38:04.625Z,99136.31
2022-12-15T10:42:12.959Z,99127.53
2022-12-15T10:46:19.748Z,99140.53
2022-12-15T10:50:25.379Z,99138.78
2022-12-15T10:54:33.227Z,99144.72
2022-12-15T10:58:50.250Z,99148.91
2022-12-15T11:02:54.959Z,99131.59
2022-12-15T11:06:58.903Z,99144.59
2022-12-15T11:11:19.170Z,99143.69
2022-12-15T11:15:42.128Z,99147.44
2022-12-15T11:19:59.821Z,99129.28
2022-12-15T11:24:11.851Z,99147.63
2022-12-15T11:28:19.721Z,99137.38
2022-12-15T11:32:26.102Z,99139.91
2022-12-15T11:36:57.206Z,99128.63
2022-12-15T11:41:12.101Z,99125.13
2022-12-15T11:45:21.194Z,99138.06
2022-12-15T11:49:47.245Z,99143.13
2022-12-15T11:54:16.720Z,99137.06
2022-12-15T11:58:39.637Z,99129.19
2022-12-15T12:03:05.670Z,99128.25
2022-12-15T12:07:16.053Z,99130.00
2022-12-15T12:11:24.512Z,99119.63
2022-12-15T12:15:33.671Z,99133.44
2022-12-15T12:19:42.707Z,99140.47
2022-12-15T12:23:51.056Z,99137.03
2022-12-15T12:27:58.554Z,99139.56
2022-12-15T12:32:08.790Z,99138.78
2022-12-15T12:36:13.625Z,99127.44
2022-12-15T12:40:21.133Z,99124.75
2022-12-15T12:44:32.057Z,99130.78
2022-12-15T12:48:38.748Z,99126.41
2022-12-15T12:52:50.956Z,99129.00
2022-12-15T12:56:53.957Z,99135.91
2022-12-15T13:01:13.550Z,99154.13
2022-12-15T13:05:29.595Z,99165.34
2022-12-15T13:09:41.696Z,99169.69
2022-12-15T13:13:51.273Z,99167.97
2022-12-15T13:18:01.499Z,99179.25
2022-12-15T13:22:04.761Z,99176.66
2022-12-15T13:26:19.443Z,99168.81
2022-12-15T13:30:22.794Z,99153.22
2022-12-15T13:34:29.481Z,99131.31
2022-12-15T13:38:53.409Z,99129.59
2022-12-15T13:42:59.270Z,99131.31
2022-12-15T13:47:10.862Z,99148.69
2022-12-15T13:51:26.949Z,99152.97
2022-12-15T13:55:38.343Z,99174.53
2022-12-15T13:59:45.693Z,99171.97
2022-12-15T14:03:59.911Z,99172.00
2022-12-15T14:08:11.901Z,99163.22
2022-12-15T14:12:15.262Z,99157.03
2022-12-15T14:16:21.195Z,99160.53
2022-12-15T14:20:27.683Z,99164.94
2022-12-15T14:24:41.237Z,99162.22
2022-12-15T14:28:46.797Z,99153.47
2022-12-15T14:32:57.082Z,99146.56
2022-12-15T14:37:04.509Z,99155.22
2022-12-15T14:41:13.380Z,99151.63
2022-12-15T14:45:21.105Z,99146.34
2022-12-15T14:49:27.882Z,99145.56
2022-12-15T14:53:34.849Z,99137.75
2022-12-15T14:57:44.465Z,99126.38
2022-12-15T15:01:58.674Z,99139.31
2022-12-15T15:06:06.807Z,99124.53
2022-12-15T15:10:23.343Z,99115.78
2022-12-15T15:14:30.210Z,99087.13
2022-12-15T15:18:33.981Z,99068.00
2022-12-15T15:22:40.888Z,99092.19
2022-12-15T15:26:44.546Z,99116.34
2022-12-15T15:30:50.508Z,99130.06
2022-12-15T15:34:53.565Z,99142.16
2022-12-15T15:38:56.618Z,99173.25
2022-12-15T15:42:59.580Z,99183.66
2022-12-15T15:47:04.863Z,99167.19
2022-12-15T15:51:08.505Z,99161.97
2022-12-15T15:55:16.277Z,99176.59
2022-12-15T15:59:21.967Z,99167.78
2022-12-15T16:03:26.927Z,99163.38
2022-12-15T16:07:30.290Z,99154.78
2022-12-15T16:11:33.239Z,99161.72
2022-12-15T16:15:37.846Z,99157.31
2022-12-15T16:19:42.236Z,99152.97
2022-12-15T16:23:47.218Z,99162.38
2022-12-15T16:27:50.214Z,99157.31
2022-12-15T16:31:53.236Z,99147.03
2022-12-15T16:35:59.041Z,99138.38
2022-12-15T16:40:02.027Z,99143.56
2022-12-15T16:44:05.896Z,99127.13
2022-12-15T16:48:08.810Z,99125.47
2022-12-15T16:52:20.742Z,99132.28
2022-12-15T16:56:24.002Z,99124.47
2022-12-15T17:00:34.141Z,99114.09
2022-12-15T17:04:37.295Z,99103.72
2022-12-15T17:08:44.721Z,99103.72
2022-12-15T17:12:47.810Z,99095.09
2022-12-15T17:16:50.711Z,99106.31
2022-12-15T17:21:04.304Z,99125.47
2022-12-15T17:25:16.617Z,99129.06
2022-12-15T17:29:21.703Z,99131.63
2022-12-15T17:33:27.316Z,99124.56
2022-12-15T17:37:35.069Z,99145.34
2022-12-15T17:46:02.721Z,99127.22
2022-12-15T17:50:06.274Z,99122.28
2022-12-15T17:54:12.099Z,99131.09
2022-12-15T17:58:20.546Z,99119.16
2022-12-15T18:02:23.630Z,99130.38
2022-12-15T18:06:27.080Z,99133.88
2022-12-15T18:10:32.872Z,99124.34
2022-12-15T18:14:37.168Z,99133.88
2022-12-15T18:18:43.134Z,99114.88
2022-12-15T18:22:46.976Z,99103.56
2022-12-15T18:26:50.074Z,99113.78
2022-12-15T18:30:56.373Z,99111.19
2022-12-15T18:34:59.527Z,99105.06
2022-12-15T18:39:10.159Z,99103.31
2022-12-15T18:43:16.173Z,99100.72
2022-12-15T18:47:22.871Z,99113.72
2022-12-15T18:51:26.014Z,99112.81
2022-12-15T18:55:32.313Z,99108.53
2022-12-15T18:59:35.313Z,99112.81
2022-12-15T19:03:41.120Z,99104.97
2022-12-15T19:07:44.427Z,99093.63
2022-12-15T19:12:17.736Z,99072.84
2022-12-15T19:16:22.269Z,99073.09
2022-12-15T19:20:44.212Z,99067.94
2022-12-15T19:24:55.893Z,99060.06
2022-12-15T19:28:59.133Z,99041.03
2022-12-15T19:33:02.401Z,99033.41
2022-12-15T19:37:12.991Z,99036.94
2022-12-15T19:41:18.274Z,99035.13
2022-12-15T19:45:24.086Z,99033.34
2022-12-15T19:49:27.234Z,99037.56
2022-12-15T19:53:32.536Z,99031.47
2022-12-15T19:57:35.961Z,99048.56
2022-12-15T20:01:39.087Z,99044.97
2022-12-15T20:05:42.782Z,99036.28
2022-12-15T20:09:47.556Z,99031.00
2022-12-15T20:13:51.749Z,99006.66
2022-12-15T20:17:57.022Z,99017.00
2022-12-15T20:22:03.481Z,99003.97
2022-12-15T20:26:08.164Z,98994.38
2022-12-15T20:30:19.100Z,98958.91
2022-12-15T20:34:23.096Z,98938.97
2022-12-15T20:38:31.556Z,98958.00
2022-12-15T20:42:36.125Z,98956.31
2022-12-15T20:46:40.145Z,98952.75
2022-12-15T20:50:45.623Z,98946.66
2022-12-15T20:54:48.725Z,98935.47
2022-12-15T20:58:53.767Z,98914.66
2022-12-15T21:02:57.057Z,98924.19
2022-12-15T21:07:00.296Z,98916.44
2022-12-15T21:11:12.205Z,98917.22
2022-12-15T21:15:18.397Z,98911.13
2022-12-15T21:19:22.621Z,98895.47
2022-12-15T21:23:28.461Z,98892.91
2022-12-15T21:27:31.556Z,98900.63
2022-12-15T21:31:35.941Z,98895.44
2022-12-15T21:35:41.129Z,98916.16
2022-12-15T21:39:44.244Z,98908.28
2022-12-15T21:43:48.263Z,98884.91
2022-12-15T21:48:11.014Z,98889.91
2022-12-15T21:52:14.537Z,98879.47
2022-12-15T21:56:19.680Z,98877.72
2022-12-15T22:00:23.492Z,98862.16
2022-12-15T22:04:31.376Z,98866.53
2022-12-15T22:08:35.194Z,98856.22
2022-12-15T22:12:39.902Z,98875.25
2022-12-15T22:16:43.086Z,98865.75
2022-12-15T22:20:49.948Z,98875.28
2022-12-15T22:24:53.253Z,98883.00
2022-12-15T22:28:58.194Z,98852.84
2022-12-15T22:33:01.777Z,98846.00
2022-12-15T22:37:06.163Z,98837.31
2022-12-15T22:41:18.347Z,98846.97
2022-12-15T22:45:23.964Z,98848.69
2022-12-15T22:49:32.103Z,98845.19
2022-12-15T22:53:36.867Z,98840.81
2022-12-15T22:57:40.002Z,98850.44
2022-12-15T23:01:43.065Z,98841.94
2022-12-15T23:05:46.446Z,98840.19
2022-12-15T23:10:10.814Z,98826.38
2022-12-15T23:14:16.246Z,98819.50
2022-12-15T23:18:19.591Z,98819.63
2022-12-15T23:22:22.947Z,98803.19
2022-12-15T23:26:27.491Z,98795.47
2022-12-15T23:30:30.526Z,98784.31
2022-12-15T23:34:33.547Z,98785.09
2022-12-15T23:38:37.106Z,98784.34
2022-12-15T23:42:41.457Z,98784.44
2022-12-15T23:46:45.224Z,98767.97
2022-12-15T23:50:49.781Z,98759.22
2022-12-15T23:54:53.649Z,98768.00
2022-12-15T23:59:00.369Z,98755.88
